createdAt,value
2016-06-06T08:40:07.917Z,195
2016-06-06T08:40:20.777Z,195
2016-06-06T08:41:20.811Z,205
2016-06-06T08:42:20.830Z,235
2016-06-06T08:43:20.880Z,240
2016-06-06T08:44:20.788Z,230
2016-06-06T08:45:20.900Z,215
2016-06-06T08:46:20.918Z,210
2016-06-06T08:47:20.936Z,220
2016-06-06T08:48:20.830Z,240
2016-06-06T08:49:20.974Z,255
2016-06-06T08:50:20.866Z,245
2016-06-06T08:51:21.041Z,245
2016-06-06T08:52:21.075Z,250
2016-06-06T08:53:21.077Z,255
2016-06-06T08:54:20.955Z,255
2016-06-06T08:55:21.115Z,250
2016-06-06T08:56:21.164Z,245
2016-06-06T08:57:21.182Z,250
2016-06-06T08:58:21.215Z,245
2016-06-06T08:59:21.079Z,225
2016-06-06T09:00:20.971Z,240
2016-06-06T09:01:21.256Z,220
2016-06-06T09:02:21.321Z,245
2016-06-06T09:03:21.323Z,215
2016-06-06T09:04:21.357Z,195
2016-06-06T09:05:21.220Z,245
2016-06-06T09:06:21.409Z,225
2016-06-06T09:07:21.428Z,230
2016-06-06T09:08:21.461Z,215
2016-06-06T09:09:21.481Z,195
2016-06-06T09:10:21.498Z,185
2016-06-06T09:11:21.533Z,190
2016-06-06T09:12:21.551Z,210
2016-06-06T09:13:21.569Z,220
2016-06-06T09:14:22.041Z,180
2016-06-06T09:15:21.605Z,190
2016-06-06T09:16:21.655Z,220
2016-06-06T09:17:21.658Z,210
2016-06-06T09:18:21.692Z,230
2016-06-06T09:19:21.710Z,185
2016-06-06T09:20:21.744Z,190
2016-06-06T09:21:21.763Z,170
2016-06-06T09:22:21.796Z,190
2016-06-06T09:23:21.815Z,225
2016-06-06T09:24:21.833Z,220
2016-06-06T09:25:21.882Z,225
2016-06-06T09:26:21.885Z,220
2016-06-06T09:27:21.904Z,225
2016-06-06T09:28:21.938Z,220
2016-06-06T09:29:22.206Z,210
2016-06-06T09:30:21.974Z,185
2016-06-06T09:31:22.008Z,220
2016-06-06T09:32:22.042Z,220
2016-06-06T09:33:22.092Z,215
2016-06-06T09:34:22.095Z,190
2016-06-06T09:35:22.098Z,215
2016-06-06T09:36:21.990Z,215
2016-06-06T09:37:22.150Z,215
2016-06-06T09:38:22.011Z,215
2016-06-06T09:39:22.233Z,215
2016-06-06T09:40:22.079Z,215
2016-06-06T09:41:22.254Z,215
2016-06-06T09:42:22.272Z,215
2016-06-06T09:43:22.291Z,215
2016-06-06T09:44:24.027Z,215
2016-06-06T09:45:22.343Z,215
2016-06-06T09:46:22.377Z,215
2016-06-06T09:47:22.427Z,215
2016-06-06T09:48:22.429Z,215
2016-06-06T09:49:22.432Z,215
2016-06-06T09:50:22.496Z,220
2016-06-06T09:51:22.515Z,220
2016-06-06T09:52:22.502Z,220
2016-06-06T09:53:22.552Z,220
2016-06-06T09:54:22.571Z,220
2016-06-06T09:55:22.604Z,220
2016-06-06T09:56:22.591Z,220
2016-06-06T09:57:22.657Z,220
2016-06-06T09:58:22.690Z,220
2016-06-06T09:59:22.724Z,220
2016-06-06T10:00:22.712Z,220
2016-06-06T10:01:22.730Z,220
2016-06-06T10:02:22.748Z,220
2016-06-06T10:03:22.782Z,220
2016-06-06T10:04:22.847Z,220
2016-06-06T10:05:22.865Z,220
2016-06-06T10:06:22.868Z,220
2016-06-06T10:07:22.871Z,215
2016-06-06T10:08:22.904Z,220
2016-06-06T10:09:22.923Z,220
2016-06-06T10:10:22.972Z,220
2016-06-06T10:11:22.976Z,220
2016-06-06T10:12:23.009Z,220
2016-06-06T10:13:22.871Z,220
2016-06-06T10:14:22.937Z,225
2016-06-06T10:15:22.923Z,225
2016-06-06T10:16:23.114Z,225
2016-06-06T10:17:23.132Z,225
2016-06-06T10:18:23.150Z,225
2016-06-06T10:19:23.184Z,225
2016-06-06T10:20:23.203Z,225
2016-06-06T10:21:23.221Z,230
2016-06-06T10:22:23.255Z,230
2016-06-06T10:23:23.274Z,230
2016-06-06T10:24:23.322Z,230
2016-06-06T10:25:23.325Z,235
2016-06-06T10:26:23.391Z,240
2016-06-06T10:27:23.377Z,245
2016-06-06T10:28:23.270Z,255
2016-06-06T10:29:23.336Z,260
2016-06-06T10:30:23.463Z,260
2016-06-06T10:31:23.482Z,260
2016-06-06T10:32:23.515Z,255
2016-06-06T10:33:23.534Z,260
2016-06-06T10:34:23.584Z,260
2016-06-06T10:35:23.587Z,260
2016-06-06T10:36:23.604Z,265
2016-06-06T10:37:23.623Z,265
2016-06-06T10:38:23.688Z,270
2016-06-06T10:39:23.692Z,270
2016-06-06T10:40:23.709Z,265
2016-06-06T10:41:23.728Z,270
2016-06-06T10:42:23.792Z,260
2016-06-06T10:43:23.795Z,260
2016-06-06T10:44:24.033Z,265
2016-06-06T10:45:23.848Z,260
2016-06-06T10:46:23.866Z,260
2016-06-06T10:47:23.900Z,260
2016-06-06T10:48:23.966Z,260
2016-06-06T10:49:23.936Z,265
2016-06-06T10:50:24.017Z,270
2016-06-06T10:51:23.974Z,270
2016-06-06T10:52:23.867Z,270
2016-06-06T10:53:24.025Z,270
2016-06-06T10:54:23.903Z,210
2016-06-06T10:55:24.078Z,205
2016-06-06T10:56:24.127Z,205
2016-06-06T10:57:24.130Z,205
2016-06-06T10:58:24.163Z,210
2016-06-06T10:59:24.276Z,285
2016-06-06T11:00:24.466Z,290
2016-06-06T11:01:24.266Z,290
2016-06-06T11:02:24.268Z,290
2016-06-06T11:03:24.287Z,295
2016-06-06T11:04:24.165Z,295
2016-06-06T11:05:24.355Z,290
2016-06-06T11:06:24.358Z,290
2016-06-06T11:07:24.235Z,290
2016-06-06T11:08:24.425Z,290
2016-06-06T11:09:24.443Z,290
2016-06-06T11:10:24.478Z,290
2016-06-06T11:11:24.496Z,290
2016-06-06T11:12:24.545Z,285
2016-06-06T11:13:24.564Z,280
2016-06-06T11:14:24.442Z,265
2016-06-06T11:15:25.163Z,220
2016-06-06T11:16:24.634Z,220
2016-06-06T11:17:24.652Z,215
2016-06-06T11:18:24.547Z,215
2016-06-06T11:19:24.705Z,210
2016-06-06T11:20:24.723Z,210
2016-06-06T11:21:24.758Z,210
2016-06-06T11:22:24.775Z,260
2016-06-06T11:23:24.841Z,270
2016-06-06T11:24:24.844Z,265
2016-06-06T11:25:24.846Z,265
2016-06-06T11:26:24.896Z,265
2016-06-06T11:27:24.914Z,200
2016-06-06T11:28:24.932Z,195
2016-06-06T11:29:25.294Z,195
2016-06-06T11:30:24.688Z,220
2016-06-06T11:31:25.018Z,260
2016-06-06T11:32:24.880Z,265
2016-06-06T11:33:25.071Z,270
2016-06-06T11:34:25.104Z,270
2016-06-06T11:35:25.138Z,275
2016-06-06T11:36:25.141Z,280
2016-06-06T11:37:39.223Z,290
2016-06-06T11:38:25.209Z,290
2016-06-06T11:40:25.245Z,295
2016-06-06T11:41:25.123Z,300
2016-06-06T11:42:25.298Z,300
2016-06-06T11:43:25.942Z,300
2016-06-06T11:44:25.209Z,305
2016-06-06T11:45:25.087Z,305
2016-06-06T11:46:25.403Z,305
2016-06-06T11:47:25.405Z,315
2016-06-06T11:48:25.455Z,305
2016-06-06T11:49:25.458Z,305
2016-06-06T11:50:25.508Z,305
2016-06-06T11:51:25.510Z,305
2016-06-06T11:52:25.544Z,310
2016-06-06T11:53:25.578Z,300
2016-06-06T11:54:25.471Z,300
2016-06-06T11:55:25.614Z,295
2016-06-06T11:56:25.664Z,295
2016-06-06T11:57:25.510Z,290
2016-06-06T11:58:25.732Z,295
2016-06-06T12:00:25.863Z,305
2016-06-06T12:01:25.802Z,310
2016-06-06T12:02:25.820Z,305
2016-06-06T12:03:25.839Z,305
2016-06-06T12:04:25.889Z,310
2016-06-06T12:05:25.891Z,305
2016-06-06T12:06:25.784Z,305
2016-06-06T12:07:25.960Z,305
2016-06-06T12:08:26.040Z,315
2016-06-06T12:09:25.995Z,315
2016-06-06T12:10:26.046Z,310
2016-06-06T12:11:26.064Z,310
2016-06-06T12:12:26.098Z,300
2016-06-06T12:13:26.132Z,230
2016-06-06T12:14:26.743Z,215
2016-06-06T12:15:26.965Z,225
2016-06-06T12:16:26.187Z,280
2016-06-06T12:17:26.251Z,290
2016-06-06T12:18:26.254Z,290
2016-06-06T12:19:26.289Z,225
2016-06-06T12:20:26.306Z,295
2016-06-06T12:21:26.341Z,275
2016-06-06T12:22:26.375Z,220
2016-06-06T12:23:26.080Z,310
2016-06-06T12:24:26.442Z,245
2016-06-06T12:25:26.491Z,230
2016-06-06T12:26:26.479Z,230
2016-06-06T12:27:26.482Z,235
2016-06-06T12:28:26.530Z,240
2016-06-06T12:29:26.846Z,320
2016-06-06T12:30:27.568Z,315
2016-06-06T12:31:26.586Z,320
2016-06-06T12:32:26.636Z,325
2016-06-06T12:33:26.654Z,235
2016-06-06T12:34:26.671Z,230
2016-06-06T12:35:26.691Z,230
2016-06-06T12:36:26.724Z,230
2016-06-06T12:37:26.727Z,235
2016-06-06T12:38:26.807Z,230
2016-06-06T12:39:26.810Z,230
2016-06-06T12:40:26.829Z,225
2016-06-06T12:41:26.863Z,225
2016-06-06T12:42:26.865Z,225
2016-06-06T12:43:26.901Z,220
2016-06-06T12:44:27.637Z,220
2016-06-06T12:45:26.936Z,210
2016-06-06T12:46:27.001Z,210
2016-06-06T12:47:26.989Z,210
2016-06-06T12:48:27.023Z,210
2016-06-06T12:49:27.056Z,215
2016-06-06T12:50:27.122Z,215
2016-06-06T12:51:27.109Z,220
2016-06-06T12:52:27.127Z,220
2016-06-06T12:53:27.145Z,220
2016-06-06T12:54:27.180Z,230
2016-06-06T12:55:27.058Z,230
2016-06-06T12:56:27.247Z,225
2016-06-06T12:57:27.249Z,225
2016-06-06T12:58:27.143Z,220
2016-06-06T12:59:27.646Z,230
2016-06-06T13:00:27.227Z,220
2016-06-06T13:01:27.370Z,215
2016-06-06T13:02:27.388Z,210
2016-06-06T13:03:27.422Z,200
2016-06-06T13:04:27.440Z,200
2016-06-06T13:05:27.475Z,200
2016-06-06T13:06:27.477Z,200
2016-06-06T13:07:27.526Z,205
2016-06-06T13:08:27.546Z,205
2016-06-06T13:09:27.563Z,205
2016-06-06T13:10:27.613Z,210
2016-06-06T13:11:27.631Z,210
2016-06-06T13:12:27.649Z,210
2016-06-06T13:13:27.652Z,210
2016-06-06T13:14:28.780Z,225
2016-06-06T13:15:28.236Z,305
2016-06-06T13:16:27.754Z,305
2016-06-06T13:17:27.787Z,310
2016-06-06T13:18:27.806Z,315
2016-06-06T13:19:27.825Z,310
2016-06-06T13:20:27.859Z,265
2016-06-06T13:21:41.783Z,310
2016-06-06T13:22:27.926Z,320
2016-06-06T13:23:27.929Z,310
2016-06-06T13:24:27.947Z,280
2016-06-06T13:25:27.966Z,240
2016-06-06T13:26:28.000Z,280
2016-06-06T13:27:42.111Z,230
2016-06-06T13:28:28.052Z,235
2016-06-06T13:29:28.289Z,225
2016-06-06T13:30:29.276Z,225
2016-06-06T13:31:28.138Z,215
2016-06-06T13:32:28.157Z,215
2016-06-06T13:33:28.174Z,215
2016-06-06T13:34:28.224Z,260
2016-06-06T13:35:28.227Z,220
2016-06-06T13:36:28.105Z,220
2016-06-06T13:37:28.310Z,235
2016-06-06T13:38:28.313Z,230
2016-06-06T13:39:28.363Z,225
2016-06-06T13:40:28.349Z,290
2016-06-06T13:41:28.399Z,305
2016-06-06T13:42:28.417Z,295
2016-06-06T13:43:28.452Z,300
2016-06-06T13:44:28.643Z,310
2016-06-06T13:45:29.723Z,310
2016-06-06T13:46:31.553Z,310
2016-06-06T13:47:28.557Z,285
2016-06-06T13:48:28.590Z,315
2016-06-06T13:49:28.795Z,265
2016-06-06T13:50:28.626Z,220
2016-06-06T13:51:28.348Z,220
2016-06-06T13:52:28.867Z,250
2016-06-06T13:53:28.697Z,250
2016-06-06T13:54:28.716Z,255
2016-06-06T13:55:28.750Z,315
2016-06-06T13:56:28.642Z,315
2016-06-06T13:57:28.661Z,315
2016-06-06T13:58:42.897Z,320
2016-06-06T13:59:42.775Z,320
2016-06-06T14:00:29.388Z,300
2016-06-06T14:01:31.985Z,300
2016-06-06T14:02:28.941Z,290
2016-06-06T14:03:28.974Z,315
2016-06-06T14:04:28.993Z,315
2016-06-06T14:05:29.027Z,320
2016-06-06T14:06:29.061Z,255
2016-06-06T14:08:28.988Z,315
2016-06-06T14:09:30.084Z,320
2016-06-06T14:10:29.415Z,320
2016-06-06T14:11:29.230Z,320
2016-06-06T14:12:29.233Z,320
2016-06-06T14:13:29.251Z,320
2016-06-06T14:14:29.160Z,320
2016-06-06T14:16:29.619Z,315
2016-06-06T14:17:29.387Z,235
2016-06-06T14:18:29.405Z,245
2016-06-06T14:19:29.439Z,285
2016-06-06T14:20:29.457Z,285
2016-06-06T14:21:29.475Z,315
2016-06-06T14:22:29.353Z,310
2016-06-06T14:23:29.387Z,230
2016-06-06T14:24:29.562Z,220
2016-06-06T14:25:29.596Z,220
2016-06-06T14:26:29.630Z,220
2016-06-06T14:27:29.663Z,220
2016-06-06T14:28:29.698Z,220
2016-06-06T14:29:30.013Z,220
2016-06-06T14:30:31.093Z,215
2016-06-06T14:31:29.769Z,215
2016-06-06T14:32:29.786Z,220
2016-06-06T14:33:29.821Z,215
2016-06-06T14:34:29.823Z,210
2016-06-06T14:35:29.857Z,210
2016-06-06T14:36:29.735Z,210
2016-06-06T14:37:29.753Z,210
2016-06-06T14:38:29.943Z,205
2016-06-06T14:39:29.963Z,210
2016-06-06T14:40:29.996Z,205
2016-06-06T14:41:30.013Z,205
2016-06-06T14:42:30.048Z,200
2016-06-06T14:43:30.051Z,200
2016-06-06T14:44:29.835Z,200
2016-06-06T14:45:30.399Z,200
2016-06-06T14:46:29.996Z,200
2016-06-06T14:47:30.170Z,200
2016-06-06T14:48:30.221Z,195
2016-06-06T14:49:30.254Z,190
2016-06-06T14:50:30.272Z,190
2016-06-06T14:51:30.290Z,185
2016-06-06T14:52:30.309Z,180
2016-06-06T14:53:30.358Z,185
2016-06-06T14:54:30.345Z,230
2016-06-06T14:55:30.395Z,170
2016-06-06T14:56:30.414Z,165
2016-06-06T14:57:30.463Z,165
2016-06-06T14:58:30.482Z,170
2016-06-06T14:59:30.781Z,180
2016-06-06T15:00:30.581Z,195
2016-06-06T15:01:32.021Z,170
2016-06-06T15:02:30.586Z,165
2016-06-06T15:03:30.605Z,160
2016-06-06T15:04:30.622Z,160
2016-06-06T15:05:30.641Z,160
2016-06-06T15:06:30.675Z,160
2016-06-06T15:07:30.708Z,160
2016-06-06T15:08:30.416Z,160
2016-06-06T15:09:30.761Z,160
2016-06-06T15:10:30.763Z,160
2016-06-06T15:11:30.657Z,155
2016-06-06T15:12:30.832Z,155
2016-06-06T15:13:30.849Z,150
2016-06-06T15:14:31.540Z,150
2016-06-06T15:15:31.324Z,150
2016-06-06T15:16:30.936Z,145
2016-06-06T15:17:30.970Z,145
2016-06-06T15:18:30.817Z,140
2016-06-06T15:19:30.851Z,140
2016-06-06T15:20:30.885Z,140
2016-06-06T15:21:31.059Z,140
2016-06-06T15:22:31.093Z,140
2016-06-06T15:23:31.112Z,135
2016-06-06T15:24:31.146Z,135
2016-06-06T15:25:31.164Z,135
2016-06-06T15:26:31.181Z,135
2016-06-06T15:27:31.216Z,135
2016-06-06T15:28:31.234Z,135
2016-06-06T15:29:40.940Z,135
2016-06-06T15:30:32.740Z,135
2016-06-06T15:31:31.305Z,135
2016-06-06T15:32:31.355Z,135
2016-06-06T15:33:31.200Z,135
2016-06-06T15:34:31.407Z,135
2016-06-06T15:35:31.425Z,135
2016-06-06T15:36:31.444Z,140
2016-06-06T15:37:31.461Z,140
2016-06-06T15:38:31.496Z,140
2016-06-06T15:39:31.514Z,140
2016-06-06T15:40:31.532Z,140
2016-06-06T15:41:31.566Z,140
2016-06-06T15:42:31.584Z,140
2016-06-06T15:43:31.618Z,145
2016-06-06T15:44:32.996Z,150
2016-06-06T15:45:45.718Z,170
2016-06-06T15:46:31.689Z,165
2016-06-06T15:47:31.707Z,145
2016-06-06T15:48:31.741Z,145
2016-06-06T15:49:31.619Z,140
2016-06-06T15:50:31.810Z,140
2016-06-06T15:51:31.812Z,140
2016-06-06T15:52:31.846Z,140
2016-06-06T15:53:31.864Z,135
2016-06-06T15:54:31.898Z,135
2016-06-06T15:55:31.901Z,135
2016-06-06T15:56:31.794Z,130
2016-06-06T15:57:31.968Z,130
2016-06-06T15:58:31.987Z,130
2016-06-06T15:59:32.209Z,130
2016-06-06T16:00:32.180Z,130
2016-06-06T16:01:32.073Z,130
2016-06-06T16:02:32.092Z,130
2016-06-06T16:03:32.094Z,130
2016-06-06T16:04:32.159Z,140
2016-06-06T16:05:32.162Z,140
2016-06-06T16:06:32.024Z,145
2016-06-06T16:07:32.214Z,150
2016-06-06T16:08:32.248Z,155
2016-06-06T16:09:32.111Z,160
2016-06-06T16:10:32.285Z,165
2016-06-06T16:11:32.303Z,170
2016-06-06T16:12:32.338Z,175
2016-06-06T16:13:32.372Z,185
2016-06-06T16:14:32.468Z,190
2016-06-06T16:15:32.892Z,195
2016-06-06T16:16:32.441Z,200
2016-06-06T16:17:32.304Z,210
2016-06-06T16:18:32.322Z,215
2016-06-06T16:19:46.591Z,215
2016-06-06T16:20:32.390Z,220
2016-06-06T16:21:32.580Z,225
2016-06-06T16:22:32.599Z,230
2016-06-06T16:23:32.632Z,260
2016-06-06T16:24:32.651Z,265
2016-06-06T16:25:32.669Z,260
2016-06-06T16:26:32.687Z,245
2016-06-06T16:27:32.753Z,250
2016-06-06T16:28:32.802Z,270
2016-06-06T16:29:34.383Z,280
2016-06-06T16:30:33.354Z,280
2016-06-06T16:31:32.826Z,285
2016-06-06T16:32:32.828Z,285
2016-06-06T16:33:46.940Z,295
2016-06-06T16:34:32.881Z,305
2016-06-06T16:35:32.931Z,305
2016-06-06T16:36:32.964Z,300
2016-06-06T16:37:32.967Z,295
2016-06-06T16:38:33.001Z,290
2016-06-06T16:39:33.035Z,265
2016-06-06T16:40:33.053Z,250
2016-06-06T16:41:33.072Z,240
2016-06-06T16:42:33.126Z,240
2016-06-06T16:43:33.134Z,240
2016-06-06T16:44:33.188Z,240
2016-06-06T16:45:33.047Z,245
2016-06-06T16:46:33.235Z,235
2016-06-06T16:47:33.271Z,235
2016-06-06T16:48:33.275Z,235
2016-06-06T16:49:33.150Z,230
2016-06-06T16:50:33.361Z,230
2016-06-06T16:51:33.346Z,220
2016-06-06T16:52:33.381Z,215
2016-06-06T16:53:33.416Z,205
2016-06-06T16:54:33.278Z,195
2016-06-06T16:55:33.470Z,190
2016-06-06T16:56:33.489Z,190
2016-06-06T16:57:33.368Z,185
2016-06-06T16:58:33.542Z,185
2016-06-06T16:59:33.123Z,185
2016-06-06T17:00:33.611Z,185
2016-06-06T17:01:33.645Z,185
2016-06-06T17:02:33.664Z,180
2016-06-06T17:03:33.682Z,175
2016-06-06T17:04:33.684Z,170
2016-06-06T17:05:33.719Z,160
2016-06-06T17:06:33.736Z,160
2016-06-06T17:07:33.772Z,150
2016-06-06T17:08:33.649Z,150
2016-06-06T17:09:33.839Z,145
2016-06-06T17:10:33.858Z,145
2016-06-06T17:11:33.860Z,140
2016-06-06T17:12:33.894Z,140
2016-06-06T17:13:33.913Z,135
2016-06-06T17:14:33.821Z,130
2016-06-06T17:15:34.655Z,125
2016-06-06T17:16:33.999Z,125
2016-06-06T17:17:34.048Z,120
2016-06-06T17:18:34.035Z,115
2016-06-06T17:19:34.085Z,110
2016-06-06T17:20:34.102Z,105
2016-06-06T17:21:34.137Z,100
2016-06-06T17:22:33.983Z,95
2016-06-06T17:23:34.158Z,95
2016-06-06T17:24:34.207Z,90
2016-06-06T17:25:34.226Z,85
2016-06-06T17:26:34.259Z,85
2016-06-06T17:27:34.106Z,85
2016-06-06T17:28:34.187Z,85
2016-06-06T17:29:35.349Z,80
2016-06-06T17:30:35.115Z,80
2016-06-06T17:31:34.382Z,80
2016-06-06T17:32:34.384Z,80
2016-06-06T17:33:34.435Z,80
2016-06-06T17:34:34.437Z,80
2016-06-06T17:35:34.486Z,80
2016-06-06T17:36:34.317Z,80
2016-06-06T17:37:34.383Z,80
2016-06-06T17:38:34.525Z,85
2016-06-06T17:39:34.576Z,85
2016-06-06T17:40:34.422Z,90
2016-06-06T17:41:34.612Z,90
2016-06-06T17:42:34.631Z,95
2016-06-06T17:43:34.680Z,95
2016-06-06T17:44:34.542Z,95
2016-06-06T17:45:35.169Z,90
2016-06-06T17:46:34.830Z,90
2016-06-06T17:47:34.769Z,90
2016-06-06T17:48:34.802Z,85
2016-06-06T17:49:34.666Z,85
2016-06-06T17:50:34.840Z,85
2016-06-06T17:51:34.857Z,85
2016-06-06T17:52:34.892Z,85
2016-06-06T17:53:34.910Z,85
2016-06-06T17:54:34.944Z,85
2016-06-06T17:55:34.962Z,85
2016-06-06T17:56:34.824Z,85
2016-06-06T17:57:34.999Z,85
2016-06-06T17:58:34.861Z,85
2016-06-06T17:59:35.864Z,85
2016-06-06T18:00:35.132Z,85
2016-06-06T18:01:35.120Z,85
2016-06-06T18:02:35.122Z,85
2016-06-06T18:03:35.203Z,85
2016-06-06T18:04:35.159Z,85
2016-06-06T18:05:35.223Z,85
2016-06-06T18:06:35.070Z,85
2016-06-06T18:07:35.245Z,85
2016-06-06T18:08:35.278Z,90
2016-06-06T18:09:35.297Z,90
2016-06-06T18:10:35.331Z,90
2016-06-06T18:11:35.364Z,90
2016-06-06T18:12:35.383Z,90
2016-06-06T18:13:35.402Z,90
2016-06-06T18:14:35.952Z,90
2016-06-06T18:15:36.079Z,90
2016-06-06T18:16:35.316Z,90
2016-06-06T18:17:35.506Z,90
2016-06-06T18:18:35.508Z,85
2016-06-06T18:19:35.558Z,85
2016-06-06T18:20:35.577Z,85
2016-06-06T18:21:35.596Z,85
2016-06-06T18:22:35.613Z,85
2016-06-06T18:23:35.507Z,80
2016-06-06T18:24:35.665Z,80
2016-06-06T18:25:35.700Z,80
2016-06-06T18:26:35.561Z,80
2016-06-06T18:27:35.736Z,80
2016-06-06T18:28:35.754Z,80
2016-06-06T18:29:36.429Z,80
2016-06-06T18:30:35.369Z,80
2016-06-06T18:31:35.685Z,85
2016-06-06T18:32:35.843Z,105
2016-06-06T18:33:35.720Z,105
2016-06-06T18:34:35.895Z,80
2016-06-06T18:35:35.929Z,75
2016-06-06T18:36:35.964Z,75
2016-06-06T18:37:35.966Z,75
2016-06-06T18:38:36.000Z,75
2016-06-06T18:39:36.034Z,75
2016-06-06T18:40:36.067Z,75
2016-06-06T18:41:36.070Z,75
2016-06-06T18:42:36.120Z,75
2016-06-06T18:43:36.107Z,70
2016-06-06T18:44:36.189Z,70
2016-06-06T18:45:36.910Z,70
2016-06-06T18:46:36.038Z,65
2016-06-06T18:47:36.243Z,65
2016-06-06T18:48:36.261Z,60
2016-06-06T18:49:36.280Z,60
2016-06-06T18:50:36.282Z,60
2016-06-06T18:51:36.316Z,55
2016-06-06T18:52:36.335Z,55
2016-06-06T18:53:36.385Z,50
2016-06-06T18:54:36.402Z,50
2016-06-06T18:55:36.420Z,45
2016-06-06T18:56:36.471Z,50
2016-06-06T18:57:36.457Z,40
2016-06-06T18:58:36.507Z,40
2016-06-06T18:59:36.541Z,40
2016-06-06T19:00:37.903Z,40
2016-06-06T19:01:36.545Z,40
2016-06-06T19:02:36.580Z,40
2016-06-06T19:03:36.458Z,40
2016-06-06T19:04:36.476Z,35
2016-06-06T19:05:36.494Z,35
2016-06-06T19:06:36.669Z,35
2016-06-06T19:07:36.687Z,35
2016-06-06T19:08:36.737Z,30
2016-06-06T19:09:36.599Z,30
2016-06-06T19:10:36.773Z,30
2016-06-06T19:11:36.636Z,30
2016-06-06T19:12:36.826Z,30
2016-06-06T19:13:36.828Z,30
2016-06-06T19:14:36.894Z,30
2016-06-06T19:15:36.880Z,30
2016-06-06T19:16:37.759Z,30
2016-06-06T19:17:36.933Z,30
2016-06-06T19:18:36.967Z,25
2016-06-06T19:19:36.813Z,25
2016-06-06T19:20:37.004Z,25
2016-06-06T19:21:37.038Z,25
2016-06-06T19:22:37.056Z,20
2016-06-06T19:23:36.949Z,20
2016-06-06T19:24:37.108Z,20
2016-06-06T19:25:37.126Z,15
2016-06-06T19:26:37.145Z,15
2016-06-06T19:27:37.163Z,15
2016-06-06T19:28:37.196Z,15
2016-06-06T19:29:37.059Z,15
2016-06-06T19:30:37.281Z,15
2016-06-06T19:31:37.268Z,15
2016-06-06T19:32:37.301Z,15
2016-06-06T19:33:37.320Z,10
2016-06-06T19:34:38.120Z,10
2016-06-06T19:35:37.497Z,10
2016-06-06T19:36:37.218Z,10
2016-06-06T19:37:37.425Z,10
2016-06-06T19:38:37.271Z,10
2016-06-06T19:39:37.461Z,5
2016-06-06T19:40:37.479Z,5
2016-06-06T19:41:37.498Z,5
2016-06-06T19:42:37.500Z,5
2016-06-06T19:43:37.550Z,5
2016-06-06T19:44:37.569Z,5
2016-06-06T19:45:37.602Z,5
2016-06-06T19:46:37.605Z,5
2016-06-06T19:47:37.639Z,5
2016-06-06T19:48:37.985Z,5
2016-06-06T19:49:39.160Z,5
2016-06-06T19:50:37.552Z,0
2016-06-06T19:51:37.712Z,0
2016-06-06T19:52:37.605Z,0
2016-06-06T19:53:37.764Z,0
2016-06-06T19:54:37.813Z,0
2016-06-06T19:55:37.832Z,0
2016-06-06T19:56:37.835Z,0
2016-06-06T19:57:37.869Z,0
2016-06-06T19:58:37.902Z,0
2016-06-06T19:59:37.921Z,0
2016-06-06T20:00:37.782Z,0
2016-06-06T20:01:37.957Z,0
2016-06-06T20:02:37.976Z,0
2016-06-06T20:03:37.994Z,0
2016-06-06T20:04:38.325Z,0
2016-06-06T20:05:38.469Z,0
2016-06-06T20:06:38.064Z,0
2016-06-06T20:07:37.927Z,0
2016-06-06T20:08:38.117Z,0
2016-06-06T20:09:38.151Z,0
2016-06-06T20:10:38.013Z,0
2016-06-06T20:11:38.172Z,0
2016-06-06T20:12:38.190Z,0
2016-06-06T20:13:38.239Z,0
2016-06-06T20:14:38.242Z,0
2016-06-06T20:15:38.120Z,0
2016-06-06T20:16:38.294Z,0
2016-06-06T20:17:38.313Z,0
2016-06-06T20:18:38.363Z,0
2016-06-06T20:19:39.116Z,0
2016-06-06T20:20:38.415Z,0
2016-06-06T20:21:38.247Z,0
2016-06-06T20:22:38.280Z,0
2016-06-06T20:23:38.454Z,0
2016-06-06T20:24:38.488Z,0
2016-06-06T20:25:38.507Z,0
2016-06-06T20:26:38.524Z,0
2016-06-06T20:27:38.559Z,0
2016-06-06T20:28:38.546Z,0
2016-06-06T20:29:38.596Z,0
2016-06-06T20:30:38.598Z,0
2016-06-06T20:31:38.632Z,0
2016-06-06T20:32:38.666Z,0
2016-06-06T20:33:38.685Z,0
2016-06-06T20:34:39.297Z,0
2016-06-06T20:35:39.049Z,0
2016-06-06T20:36:38.583Z,0
2016-06-06T20:37:38.789Z,0
2016-06-06T20:38:38.651Z,0
2016-06-06T20:39:38.809Z,0
2016-06-06T20:40:38.844Z,0
2016-06-06T20:41:38.862Z,0
2016-06-06T20:42:38.881Z,0
2016-06-06T20:43:38.898Z,0
2016-06-06T20:44:38.933Z,0
2016-06-06T20:45:38.778Z,0
2016-06-06T20:46:38.953Z,0
2016-06-06T20:47:38.847Z,0
2016-06-06T20:48:39.006Z,0
2016-06-06T20:49:39.055Z,0
2016-06-06T20:50:39.558Z,0
2016-06-06T20:51:39.060Z,0
2016-06-06T20:52:38.969Z,0
2016-06-06T20:53:39.113Z,0
2016-06-06T20:54:39.132Z,0
2016-06-06T20:55:39.009Z,0
2016-06-06T20:56:39.183Z,0
2016-06-06T20:57:39.202Z,0
2016-06-06T20:58:39.236Z,0
2016-06-06T20:59:39.254Z,0
2016-06-06T21:00:39.273Z,0
2016-06-06T21:01:39.322Z,0
2016-06-06T21:02:39.325Z,0
2016-06-06T21:03:39.360Z,0
2016-06-06T21:04:39.361Z,0
2016-06-06T21:05:39.098Z,0
2016-06-06T21:06:39.415Z,0
2016-06-06T21:07:39.432Z,0
2016-06-06T21:08:39.465Z,0
2016-06-06T21:09:39.484Z,0
2016-06-06T21:10:39.487Z,0
2016-06-06T21:11:39.349Z,0
2016-06-06T21:12:39.539Z,0
2016-06-06T21:13:39.573Z,0
2016-06-06T21:14:39.592Z,0
2016-06-06T21:15:39.610Z,0
2016-06-06T21:16:39.487Z,0
2016-06-06T21:17:39.647Z,0
2016-06-06T21:18:39.524Z,0
2016-06-06T21:19:39.715Z,0
2016-06-06T21:20:39.966Z,0
2016-06-06T21:21:39.735Z,0
2016-06-06T21:22:39.753Z,0
2016-06-06T21:23:39.616Z,0
2016-06-06T21:24:39.805Z,0
2016-06-06T21:25:39.840Z,0
2016-06-06T21:26:39.843Z,0
2016-06-06T21:27:39.877Z,0
2016-06-06T21:28:39.910Z,0
2016-06-06T21:29:39.897Z,0
2016-06-06T21:30:39.932Z,0
2016-06-06T21:31:39.965Z,0
2016-06-06T21:32:39.968Z,0
2016-06-06T21:33:40.001Z,0
2016-06-06T21:34:39.864Z,0
2016-06-06T21:35:42.117Z,0
2016-06-06T21:36:40.057Z,0
2016-06-06T21:37:40.090Z,0
2016-06-06T21:38:40.093Z,0
2016-06-06T21:39:41.378Z,0
2016-06-06T21:40:40.146Z,0
2016-06-06T21:41:40.179Z,0
2016-06-06T21:42:40.214Z,0
2016-06-06T21:43:40.200Z,0
2016-06-06T21:44:40.094Z,0
2016-06-06T21:45:40.253Z,0
2016-06-06T21:46:40.271Z,0
2016-06-06T21:47:40.289Z,0
2016-06-06T21:48:40.323Z,0
2016-06-06T21:49:40.342Z,0
2016-06-06T21:50:41.047Z,0
2016-06-06T21:51:40.222Z,0
2016-06-06T21:52:40.397Z,0
2016-06-06T21:53:40.275Z,0
2016-06-06T21:54:40.449Z,0
2016-06-06T21:55:40.467Z,0
2016-06-06T21:56:40.485Z,0
2016-06-06T21:57:40.504Z,0
2016-06-06T21:58:40.538Z,0
2016-06-06T21:59:40.557Z,0
2016-06-06T22:00:40.574Z,0
2016-06-06T22:01:40.608Z,0
2016-06-06T22:02:40.611Z,0
2016-06-06T22:03:40.661Z,0
2016-06-06T22:04:40.507Z,0
2016-06-06T22:05:41.198Z,0
2016-06-06T22:06:40.700Z,0
2016-06-06T22:07:40.734Z,0
2016-06-06T22:08:40.737Z,0
2016-06-06T22:09:40.787Z,0
2016-06-06T22:10:40.789Z,0
2016-06-06T22:11:40.807Z,0
2016-06-06T22:12:40.842Z,0
2016-06-06T22:13:40.860Z,0
2016-06-06T22:14:40.878Z,0
2016-06-06T22:15:40.896Z,0
2016-06-06T22:16:40.931Z,0
2016-06-06T22:17:40.933Z,0
2016-06-06T22:18:40.857Z,0
2016-06-06T22:19:40.986Z,0
2016-06-06T22:20:41.003Z,0
2016-06-06T22:21:41.037Z,0
2016-06-06T22:22:41.039Z,0
2016-06-06T22:23:40.777Z,0
2016-06-06T22:24:41.092Z,0
2016-06-06T22:25:41.127Z,0
2016-06-06T22:26:41.129Z,0
2016-06-06T22:27:41.147Z,0
2016-06-06T22:28:41.180Z,0
2016-06-06T22:29:41.199Z,0
2016-06-06T22:30:41.249Z,0
2016-06-06T22:31:41.252Z,0
2016-06-06T22:32:41.271Z,0
2016-06-06T22:33:42.741Z,0
2016-06-06T22:34:41.307Z,0
2016-06-06T22:35:41.310Z,0
2016-06-06T22:36:41.327Z,0
2016-06-06T22:37:41.221Z,0
2016-06-06T22:38:41.396Z,0
2016-06-06T22:39:41.445Z,0
2016-06-06T22:40:55.498Z,0
2016-06-06T22:41:41.482Z,0
2016-06-06T22:42:41.468Z,0
2016-06-06T22:43:41.503Z,0
2016-06-06T22:44:41.536Z,0
2016-06-06T22:45:41.555Z,0
2016-06-06T22:46:41.573Z,0